Main page
METAR-TAF:

METAR-TAF

Airports :

Miles City Airport

Miles City, Montana, United States

latitude: 46-25-41N, longitude: 105-53-11W, elevation: 2627 ft

Current weather observation

The report was made 41 minutes ago, at 19:53 UTC
Wind 14 mph from the West
Temperature 55°F
Humidity 30%
Pressure 30.15 in. Hg
Visibility: 10 miles
Clear sky

METAR: KMLS 281953Z AUTO 28012KT 10SM CLR 13/M04 A3015 RMK AO2 SLP215 T01331039

Time: 14:34 (20:34 UTC)

Forecast

The report was made 3 hours and 11 minutes ago, at 17:23 UTC
Forecast valid from 28 at 18 UTC to 29 at 18 UTC
Wind 17 mph from the West/Northwest
Visibility: 6 miles
Clear sky
From 29 at 0200 UTC
Wind 10 mph from the Southwest
Visibility: 6 miles
Scattered clouds at a height of 7000 ft
From 29 at 1200 UTC
Wind 8 mph from the South/Southeast
Visibility: 6 miles
Few clouds at a height of 12000 ft

TAF: KMLS 281723Z 2818/2918 29015KT P6SM SKC FM290200 22009KT P6SM SCT070 FM291200 16007KT P6SM FEW120 WS020/25035KT

Weather observations and forecasts of more than 4000 airports (METAR and TAF reports).

The available stations are represented by yellow and red dots on the map.

Hover mouse over dot to see the name of the station.

Then click to see weather observations and forecasts.

To change the map : click on the green buttons with a black cross to zoom in, on the green button with a dash to zoom out, or on the green arrows for adjacent maps.


METAR-TAF: